SDM807 ULLI-UUEE
Flight info
| Callsign | SDM807 |
|---|---|
| Flight time | N/A |
| Altitude | 33000 |
| Route | SUGIN1A SUGIN T873 NIRGI T73 NAMIN NAMIN3F |
| Aircraft | B738/M-SDE2E3FGHIRWXY/LB1 |
Departure
| Time | N/A |
|---|---|
| Airport | Pulkovo Airport (ULLI) |
Arrival
| Time | 2026-05-03 20:25 |
|---|---|
| Airport | Sheremetyevo International Airport (UUEE) |
| Time | Latitude | Longitude | Altitude | Speed | Heading |
|---|---|---|---|---|---|
| 2026-05-03 20:15 | 56.36158 | 37.34948 | 6022 ft | 332 kts | 142° |
| 2026-05-03 20:15 | 56.34414 | 37.37489 | 6015 ft | 317 kts | 142° |
| 2026-05-03 20:15 | 56.32741 | 37.39924 | 5856 ft | 301 kts | 142° |
| 2026-05-03 20:15 | 56.31142 | 37.42246 | 5537 ft | 295 kts | 143° |
| 2026-05-03 20:16 | 56.29536 | 37.44572 | 5155 ft | 297 kts | 143° |
| 2026-05-03 20:16 | 56.27955 | 37.46863 | 4841 ft | 289 kts | 143° |
| 2026-05-03 20:16 | 56.26386 | 37.49133 | 4256 ft | 290 kts | 143° |
| 2026-05-03 20:16 | 56.24817 | 37.51402 | 3788 ft | 288 kts | 143° |
| 2026-05-03 20:17 | 56.23296 | 37.53600 | 3743 ft | 270 kts | 143° |
| 2026-05-03 20:17 | 56.21898 | 37.55621 | 3442 ft | 250 kts | 143° |
| 2026-05-03 20:17 | 56.20573 | 37.57530 | 2928 ft | 241 kts | 144° |
| 2026-05-03 20:17 | 56.19290 | 37.59463 | 2634 ft | 242 kts | 139° |
| 2026-05-03 20:18 | 56.18105 | 37.61611 | 2534 ft | 242 kts | 137° |
| 2026-05-03 20:18 | 56.16946 | 37.63787 | 2504 ft | 240 kts | 136° |
| 2026-05-03 20:18 | 56.15787 | 37.65953 | 2502 ft | 241 kts | 137° |
| 2026-05-03 20:18 | 56.14622 | 37.68113 | 2502 ft | 240 kts | 137° |
| 2026-05-03 20:19 | 56.13458 | 37.70256 | 2496 ft | 241 kts | 137° |
| 2026-05-03 20:19 | 56.12285 | 37.72407 | 2507 ft | 241 kts | 137° |
| 2026-05-03 20:19 | 56.11128 | 37.74524 | 2494 ft | 241 kts | 137° |
| 2026-05-03 20:19 | 56.09882 | 37.76501 | 2468 ft | 237 kts | 155° |
| 2026-05-03 20:20 | 56.08315 | 37.77071 | 2514 ft | 224 kts | 188° |
| 2026-05-03 20:20 | 56.06798 | 37.76513 | 2500 ft | 223 kts | 200° |
| 2026-05-03 20:20 | 56.05344 | 37.75668 | 2505 ft | 223 kts | 202° |
| 2026-05-03 20:20 | 56.03864 | 37.74792 | 2506 ft | 224 kts | 202° |
| 2026-05-03 20:21 | 56.02481 | 37.73661 | 2458 ft | 210 kts | 225° |
| 2026-05-03 20:21 | 56.01807 | 37.71568 | 2524 ft | 188 kts | 253° |
| 2026-05-03 20:21 | 56.01395 | 37.69393 | 2499 ft | 182 kts | 253° |
| 2026-05-03 20:21 | 56.01019 | 37.67219 | 2492 ft | 184 kts | 255° |
| 2026-05-03 20:22 | 56.00676 | 37.65024 | 2501 ft | 183 kts | 256° |
| 2026-05-03 20:22 | 56.00342 | 37.62822 | 2502 ft | 183 kts | 256° |
| 2026-05-03 20:22 | 56.00010 | 37.60618 | 2474 ft | 185 kts | 256° |
| 2026-05-03 20:22 | 55.99674 | 37.58387 | 2234 ft | 185 kts | 255° |
| 2026-05-03 20:23 | 55.99342 | 37.56186 | 1985 ft | 183 kts | 255° |
| 2026-05-03 20:23 | 55.99017 | 37.54030 | 1762 ft | 178 kts | 255° |
| 2026-05-03 20:23 | 55.98695 | 37.51887 | 1530 ft | 181 kts | 254° |
| 2026-05-03 20:23 | 55.98366 | 37.49691 | 1278 ft | 188 kts | 254° |
| 2026-05-03 20:24 | 55.98023 | 37.47404 | 1026 ft | 193 kts | 253° |
| 2026-05-03 20:24 | 55.97676 | 37.45088 | 753 ft | 193 kts | 255° |
| 2026-05-03 20:24 | 55.97341 | 37.42847 | 636 ft | 184 kts | 255° |
| 2026-05-03 20:24 | 55.97043 | 37.40860 | 632 ft | 134 kts | 255° |
| 2026-05-03 20:25 | 55.96867 | 37.39686 | 632 ft | 80 kts | 255° |
| 2026-05-03 20:25 | 55.96759 | 37.38985 | 630 ft | 29 kts | 254° |
| 2026-05-03 20:25 | 55.96768 | 37.38824 | 633 ft | 6 kts | 328° |
| 2026-05-03 20:25 | 55.96839 | 37.38779 | 628 ft | 20 kts | 344° |
| 2026-05-03 20:26 | 55.97015 | 37.38696 | 632 ft | 27 kts | 344° |
| 2026-05-03 20:26 | 55.97186 | 37.38613 | 633 ft | 24 kts | 345° |
| 2026-05-03 20:26 | 55.97291 | 37.38727 | 633 ft | 21 kts | 76° |
| 2026-05-03 20:26 | 55.97326 | 37.38960 | 630 ft | 19 kts | 75° |
| 2026-05-03 20:27 | 55.97338 | 37.39037 | 632 ft | 19 kts | 74° |
| 2026-05-03 20:27 | 55.97394 | 37.39400 | 634 ft | 18 kts | 75° |
| 2026-05-03 20:27 | 55.97425 | 37.39611 | 631 ft | 17 kts | 75° |
| 2026-05-03 20:27 | 55.97460 | 37.39855 | 637 ft | 25 kts | 76° |
| 2026-05-03 20:28 | 55.97502 | 37.40149 | 633 ft | 24 kts | 75° |
| 2026-05-03 20:28 | 55.97545 | 37.40423 | 633 ft | 23 kts | 75° |
| 2026-05-03 20:28 | 55.97588 | 37.40715 | 632 ft | 30 kts | 75° |
| 2026-05-03 20:28 | 55.97652 | 37.41150 | 631 ft | 41 kts | 75° |
| 2026-05-03 20:29 | 55.97707 | 37.41579 | 633 ft | 30 kts | 88° |
| 2026-05-03 20:29 | 55.97732 | 37.41788 | 629 ft | 12 kts | 71° |
| 2026-05-03 20:29 | 55.97771 | 37.41819 | 629 ft | 1 kts | 354° |
| 2026-05-03 20:29 | 55.97780 | 37.41816 | 632 ft | 1 kts | 352° |
| 2026-05-03 20:30 | 55.97788 | 37.41814 | 633 ft | 1 kts | 351° |
| 2026-05-03 20:30 | 55.97795 | 37.41812 | 631 ft | 0 kts | 351° |